createdAt,value
2023-06-06T00:01:00.372Z,4.88
2023-06-06T00:02:03.718Z,4.87
2023-06-06T00:03:06.159Z,4.87
2023-06-06T00:04:09.738Z,4.87
2023-06-06T00:05:13.239Z,4.87
2023-06-06T00:06:22.134Z,4.87
2023-06-06T00:07:24.451Z,4.87
2023-06-06T00:08:29.382Z,4.87
2023-06-06T00:09:32.125Z,4.87
2023-06-06T00:10:35.367Z,4.87
2023-06-06T00:11:40.784Z,4.87
2023-06-06T00:12:45.260Z,4.87
2023-06-06T00:13:51.012Z,4.87
2023-06-06T00:14:55.777Z,4.87
2023-06-06T00:15:59.197Z,4.87
2023-06-06T00:17:02.960Z,4.87
2023-06-06T00:18:05.673Z,4.87
2023-06-06T00:19:08.984Z,4.87
2023-06-06T00:20:12.790Z,4.87
2023-06-06T00:21:17.337Z,4.87
2023-06-06T00:22:23.388Z,4.87
2023-06-06T00:23:27.072Z,4.87
2023-06-06T00:24:29.273Z,4.87
2023-06-06T00:25:32.682Z,4.87
2023-06-06T00:26:34.923Z,4.87
2023-06-06T00:27:38.718Z,4.87
2023-06-06T00:28:40.861Z,4.88
2023-06-06T00:29:44.057Z,4.87
2023-06-06T00:30:46.300Z,4.88
2023-06-06T00:31:49.447Z,4.87
2023-06-06T00:32:51.840Z,4.87
2023-06-06T00:33:55.043Z,4.87
2023-06-06T00:34:57.301Z,4.87
2023-06-06T00:36:00.629Z,4.87
2023-06-06T00:37:04.415Z,4.87
2023-06-06T00:38:07.601Z,4.87
2023-06-06T00:39:09.791Z,4.87
2023-06-06T00:40:14.446Z,4.87
2023-06-06T00:41:16.747Z,4.87
2023-06-06T00:42:20.015Z,4.88
2023-06-06T00:43:22.222Z,4.87
2023-06-06T00:44:25.566Z,4.87
2023-06-06T00:45:27.750Z,4.87
2023-06-06T00:46:31.139Z,4.87
2023-06-06T00:47:33.423Z,4.87
2023-06-06T00:48:36.671Z,4.87
2023-06-06T00:49:39.221Z,4.87
2023-06-06T00:50:43.876Z,4.88
2023-06-06T00:51:46.747Z,4.87
2023-06-06T00:52:51.516Z,4.87
2023-06-06T00:53:56.030Z,4.87
2023-06-06T00:54:59.689Z,4.87
2023-06-06T00:56:02.062Z,4.87
2023-06-06T00:57:08.611Z,4.88
2023-06-06T00:58:13.906Z,4.87
2023-06-06T00:59:17.563Z,4.87
2023-06-06T01:00:21.311Z,4.87
2023-06-06T01:01:24.814Z,4.88
2023-06-06T01:02:30.209Z,4.87
2023-06-06T01:03:32.793Z,4.87
2023-06-06T01:04:36.203Z,4.87
2023-06-06T01:05:38.595Z,4.87
2023-06-06T01:06:41.899Z,4.87
2023-06-06T01:07:45.045Z,4.87
2023-06-06T01:08:49.779Z,4.88
2023-06-06T01:09:51.987Z,4.87
2023-06-06T01:11:08.404Z,4.87
2023-06-06T01:12:19.384Z,4.87
2023-06-06T01:13:29.674Z,4.87
2023-06-06T01:14:39.074Z,4.88
2023-06-06T01:15:46.369Z,4.87
2023-06-06T01:16:54.013Z,4.87
2023-06-06T01:17:57.559Z,4.87
2023-06-06T01:19:00.180Z,4.87
2023-06-06T01:20:05.394Z,4.87
2023-06-06T01:21:08.093Z,4.87
2023-06-06T01:22:14.496Z,4.87
2023-06-06T01:23:17.277Z,4.88
2023-06-06T01:24:21.514Z,4.87
2023-06-06T01:25:24.710Z,4.88
2023-06-06T01:26:27.869Z,4.87
2023-06-06T01:27:34.550Z,4.87
2023-06-06T01:28:37.767Z,4.87
2023-06-06T01:29:39.943Z,4.87
2023-06-06T01:30:44.565Z,4.87
2023-06-06T01:31:53.665Z,4.87
2023-06-06T01:33:07.630Z,4.87
2023-06-06T01:34:16.765Z,4.87
2023-06-06T01:35:27.268Z,4.87
2023-06-06T01:36:34.059Z,4.87
2023-06-06T01:37:46.566Z,4.87
2023-06-06T01:38:53.131Z,4.95
2023-06-06T01:39:57.831Z,4.88
2023-06-06T01:41:02.152Z,4.87
2023-06-06T01:42:06.530Z,4.87
2023-06-06T01:43:11.351Z,4.87
2023-06-06T01:44:16.276Z,4.87
2023-06-06T01:45:20.484Z,4.87
2023-06-06T01:46:25.600Z,4.87
2023-06-06T01:47:28.100Z,4.87
2023-06-06T01:48:32.000Z,4.87
2023-06-06T01:49:34.457Z,4.87
2023-06-06T01:50:37.953Z,4.87
2023-06-06T01:51:40.143Z,4.87
2023-06-06T01:52:44.934Z,4.87
2023-06-06T01:53:47.287Z,4.87
2023-06-06T01:54:50.469Z,4.87
2023-06-06T01:55:52.736Z,4.87
2023-06-06T01:56:55.880Z,4.88
2023-06-06T01:57:58.862Z,4.87
2023-06-06T01:59:02.404Z,4.87
2023-06-06T02:00:09.164Z,4.87
2023-06-06T02:01:12.811Z,4.87
2023-06-06T02:02:15.790Z,4.87
2023-06-06T02:03:19.174Z,4.87
2023-06-06T02:04:21.397Z,4.87
2023-06-06T02:05:24.798Z,4.88
2023-06-06T02:06:27.229Z,4.87
2023-06-06T02:07:30.446Z,4.88
2023-06-06T02:08:34.087Z,4.87
2023-06-06T02:09:37.284Z,4.87
2023-06-06T02:10:39.549Z,4.87
2023-06-06T02:11:43.598Z,4.87
2023-06-06T02:12:46.205Z,4.87
2023-06-06T02:13:49.467Z,4.87
2023-06-06T02:14:52.336Z,4.87
2023-06-06T02:15:56.354Z,4.87
2023-06-06T02:16:58.898Z,4.87
2023-06-06T02:18:02.888Z,4.87
2023-06-06T02:19:05.353Z,4.87
2023-06-06T02:20:10.854Z,4.87
2023-06-06T02:21:13.630Z,4.88
2023-06-06T02:22:16.980Z,4.87
2023-06-06T02:23:20.044Z,4.88
2023-06-06T02:24:26.384Z,4.87
2023-06-06T02:25:28.592Z,4.87
2023-06-06T02:26:32.711Z,4.87
2023-06-06T02:27:36.144Z,4.88
2023-06-06T02:28:39.474Z,4.87
2023-06-06T02:29:41.636Z,4.87
2023-06-06T02:30:44.992Z,4.88
2023-06-06T02:31:47.380Z,4.87
2023-06-06T02:32:51.831Z,4.87
2023-06-06T02:33:54.182Z,4.87
2023-06-06T02:34:59.010Z,4.87
2023-06-06T02:36:01.781Z,4.87
2023-06-06T02:37:07.908Z,4.87
2023-06-06T02:38:10.176Z,4.87
2023-06-06T02:39:13.494Z,4.87
2023-06-06T02:40:17.699Z,4.87
2023-06-06T02:41:20.991Z,4.87
2023-06-06T02:42:23.259Z,4.87
2023-06-06T02:43:26.453Z,4.88
2023-06-06T02:44:28.722Z,4.87
2023-06-06T02:45:32.061Z,4.88
2023-06-06T02:46:34.462Z,4.87
2023-06-06T02:47:38.076Z,4.88
2023-06-06T02:48:40.787Z,4.88
2023-06-06T02:49:43.977Z,4.88
2023-06-06T02:50:48.954Z,4.87
2023-06-06T02:51:52.208Z,4.88
2023-06-06T02:52:55.391Z,4.88
2023-06-06T02:53:58.629Z,4.87
2023-06-06T02:55:01.023Z,4.87
2023-06-06T02:56:06.019Z,4.88
2023-06-06T02:57:08.230Z,4.87
2023-06-06T02:58:28.560Z,4.87
2023-06-06T02:59:30.916Z,4.87
2023-06-06T03:00:35.032Z,4.87
2023-06-06T03:01:38.084Z,4.87
2023-06-06T03:02:41.921Z,4.88
2023-06-06T03:03:44.234Z,4.87
2023-06-06T03:04:47.453Z,4.88
2023-06-06T03:05:52.378Z,4.87
2023-06-06T03:06:55.700Z,4.88
2023-06-06T03:07:58.408Z,4.87
2023-06-06T03:09:05.174Z,4.87
2023-06-06T03:10:08.178Z,4.87
2023-06-06T03:11:13.039Z,4.87
2023-06-06T03:12:15.441Z,4.87
2023-06-06T03:13:18.763Z,4.91
2023-06-06T03:14:21.216Z,4.88
2023-06-06T03:15:24.438Z,4.88
2023-06-06T03:16:27.697Z,4.87
2023-06-06T03:17:31.138Z,4.88
2023-06-06T03:18:33.723Z,4.87
2023-06-06T03:19:36.960Z,4.88
2023-06-06T03:20:41.177Z,4.87
2023-06-06T03:21:44.684Z,4.87
2023-06-06T03:22:46.908Z,4.88
2023-06-06T03:23:50.754Z,4.87
2023-06-06T03:24:53.005Z,4.87
2023-06-06T03:25:56.614Z,4.88
2023-06-06T03:27:00.210Z,4.87
2023-06-06T03:28:03.438Z,4.87
2023-06-06T03:29:05.650Z,4.88
2023-06-06T03:30:10.097Z,4.87
2023-06-06T03:31:12.674Z,4.88
2023-06-06T03:32:16.339Z,4.88
2023-06-06T03:33:18.804Z,4.87
2023-06-06T03:34:22.175Z,4.87
2023-06-06T03:35:25.520Z,4.88
2023-06-06T03:36:33.744Z,4.88
2023-06-06T03:37:35.974Z,4.87
2023-06-06T03:38:39.151Z,4.87
2023-06-06T03:39:42.178Z,4.87
2023-06-06T03:40:45.426Z,4.88
2023-06-06T03:41:47.722Z,4.88
2023-06-06T03:42:52.366Z,4.87
2023-06-06T03:43:54.853Z,4.87
2023-06-06T03:44:58.038Z,4.87
2023-06-06T03:46:00.334Z,4.87
2023-06-06T03:47:03.543Z,4.87
2023-06-06T03:48:05.991Z,4.87
2023-06-06T03:49:09.168Z,4.87
2023-06-06T03:50:11.865Z,4.87
2023-06-06T03:51:14.996Z,4.87
2023-06-06T03:52:17.803Z,4.87
2023-06-06T03:53:21.199Z,4.87
2023-06-06T03:54:23.909Z,4.87
2023-06-06T03:55:27.305Z,4.88
2023-06-06T03:56:29.557Z,4.88
2023-06-06T03:57:32.772Z,4.87
2023-06-06T03:58:37.603Z,4.87
2023-06-06T03:59:41.328Z,4.87
2023-06-06T04:00:44.433Z,4.87
2023-06-06T04:01:47.637Z,4.88
2023-06-06T04:02:50.021Z,4.87
2023-06-06T04:03:53.519Z,4.87
2023-06-06T04:04:55.807Z,4.87
2023-06-06T04:06:01.704Z,4.87
2023-06-06T04:07:04.603Z,4.87
2023-06-06T04:08:09.132Z,4.87
2023-06-06T04:09:12.082Z,4.87
2023-06-06T04:10:15.498Z,4.87
2023-06-06T04:11:17.709Z,4.87
2023-06-06T04:12:21.111Z,4.87
2023-06-06T04:13:23.427Z,4.87
2023-06-06T04:14:28.103Z,4.87
2023-06-06T04:15:30.406Z,4.87
2023-06-06T04:16:33.665Z,4.87
2023-06-06T04:17:36.018Z,4.88
2023-06-06T04:18:39.242Z,4.88
2023-06-06T04:19:41.446Z,4.87
2023-06-06T04:20:45.613Z,4.88
2023-06-06T04:21:47.902Z,4.87
2023-06-06T04:22:51.103Z,4.88
2023-06-06T04:23:55.343Z,4.88
2023-06-06T04:24:58.892Z,4.88
2023-06-06T04:26:03.982Z,4.88
2023-06-06T04:27:08.717Z,4.88
2023-06-06T04:28:12.261Z,4.87
2023-06-06T04:29:15.518Z,4.88
2023-06-06T04:30:24.336Z,4.87
2023-06-06T04:31:28.186Z,4.88
2023-06-06T04:32:31.471Z,4.87
2023-06-06T04:33:34.135Z,4.88
2023-06-06T04:34:41.144Z,4.87
2023-06-06T04:35:43.998Z,4.87
2023-06-06T04:36:47.386Z,4.87
2023-06-06T04:37:51.532Z,4.88
2023-06-06T04:39:02.437Z,4.88
2023-06-06T04:40:07.762Z,4.89
2023-06-06T04:42:21.595Z,4.87
2023-06-06T04:43:26.431Z,4.88
2023-06-06T04:44:28.701Z,4.88
2023-06-06T04:45:33.326Z,4.87
2023-06-06T04:46:37.475Z,4.88
2023-06-06T04:47:41.807Z,4.89
2023-06-06T04:48:46.135Z,4.87
2023-06-06T04:49:49.451Z,4.87
2023-06-06T04:50:53.330Z,4.87
2023-06-06T04:52:00.733Z,4.88
2023-06-06T04:53:02.967Z,4.87
2023-06-06T04:54:08.697Z,4.87
2023-06-06T04:55:10.894Z,4.87
2023-06-06T04:56:14.346Z,4.87
2023-06-06T04:57:18.073Z,4.87
2023-06-06T04:58:23.174Z,4.88
2023-06-06T04:59:25.678Z,4.88
2023-06-06T05:00:29.157Z,4.87
2023-06-06T05:01:32.981Z,4.88
2023-06-06T05:02:36.972Z,4.88
2023-06-06T05:03:39.309Z,4.87
2023-06-06T05:04:42.830Z,4.88
2023-06-06T05:05:45.142Z,4.87
2023-06-06T05:06:48.838Z,4.89
2023-06-06T05:07:51.160Z,4.87
2023-06-06T05:08:55.575Z,4.87
2023-06-06T05:09:58.809Z,4.88
2023-06-06T05:11:01.088Z,4.87
2023-06-06T05:12:04.680Z,4.88
2023-06-06T05:13:06.926Z,4.88
2023-06-06T05:14:10.201Z,4.87
2023-06-06T05:15:12.501Z,4.87
2023-06-06T05:16:15.909Z,4.89
2023-06-06T05:17:21.732Z,4.87
2023-06-06T05:18:25.437Z,4.87
2023-06-06T05:19:27.732Z,4.89
2023-06-06T05:20:31.466Z,4.88
2023-06-06T05:21:34.416Z,4.87
2023-06-06T05:22:37.673Z,4.87
2023-06-06T05:23:39.940Z,4.87
2023-06-06T05:24:43.563Z,4.89
2023-06-06T05:25:46.254Z,4.88
2023-06-06T05:26:49.634Z,4.87
2023-06-06T05:27:53.340Z,4.88
2023-06-06T05:28:56.585Z,4.87
2023-06-06T05:29:59.253Z,4.87
2023-06-06T05:31:03.780Z,4.88
2023-06-06T05:32:08.724Z,4.87
2023-06-06T05:33:12.503Z,4.87
2023-06-06T05:34:15.832Z,4.87
2023-06-06T05:35:18.324Z,4.89
2023-06-06T05:36:21.641Z,4.88
2023-06-06T05:37:23.953Z,4.87
2023-06-06T05:38:27.882Z,4.88
2023-06-06T05:39:30.193Z,4.88
2023-06-06T05:40:33.510Z,4.88
2023-06-06T05:41:35.862Z,4.88
2023-06-06T05:42:39.842Z,4.88
2023-06-06T05:43:46.349Z,4.89
2023-06-06T05:44:51.672Z,4.88
2023-06-06T05:45:54.015Z,4.88
2023-06-06T05:46:57.370Z,4.88
2023-06-06T05:48:00.015Z,4.88
2023-06-06T05:49:04.728Z,4.88
2023-06-06T05:50:08.169Z,4.88
2023-06-06T05:51:11.975Z,4.87
2023-06-06T05:52:15.652Z,4.88
2023-06-06T05:53:17.935Z,4.87
2023-06-06T05:54:21.454Z,4.88
2023-06-06T05:55:31.012Z,4.87
2023-06-06T05:56:34.234Z,4.87
2023-06-06T05:57:36.490Z,4.88
2023-06-06T05:58:41.665Z,4.88
2023-06-06T05:59:44.189Z,4.87
2023-06-06T06:00:47.463Z,4.87
2023-06-06T06:01:51.033Z,4.87
2023-06-06T06:02:57.227Z,4.87
2023-06-06T06:03:59.764Z,4.88
2023-06-06T06:05:04.648Z,4.88
2023-06-06T06:06:09.751Z,4.87
2023-06-06T06:07:13.243Z,4.87
2023-06-06T06:08:16.700Z,4.87
2023-06-06T06:09:23.172Z,4.87
2023-06-06T06:10:26.431Z,4.87
2023-06-06T06:11:29.730Z,4.87
2023-06-06T06:12:31.927Z,4.88
2023-06-06T06:13:35.252Z,4.87
2023-06-06T06:14:37.500Z,4.87
2023-06-06T06:15:40.674Z,4.87
2023-06-06T06:16:42.979Z,4.87
2023-06-06T06:17:46.417Z,4.87
2023-06-06T06:18:48.837Z,4.87
2023-06-06T06:19:52.072Z,4.88
2023-06-06T06:20:55.803Z,4.88
2023-06-06T06:21:59.088Z,4.87
2023-06-06T06:23:01.547Z,4.87
2023-06-06T06:26:49.359Z,4.86
2023-06-06T06:27:52.861Z,4.85
2023-06-06T06:28:56.825Z,4.85
2023-06-06T06:30:00.716Z,4.85
2023-06-06T06:31:04.225Z,4.85
2023-06-06T06:32:07.057Z,4.85
2023-06-06T06:33:10.531Z,4.85
2023-06-06T06:34:12.710Z,4.85
2023-06-06T06:35:16.171Z,4.85
2023-06-06T06:36:19.387Z,4.85
2023-06-06T06:37:22.556Z,4.85
2023-06-06T06:38:26.334Z,4.85
2023-06-06T06:39:30.724Z,4.85
2023-06-06T06:40:36.137Z,4.84
2023-06-06T06:41:40.788Z,4.86
2023-06-06T06:42:45.064Z,4.85
2023-06-06T06:43:48.341Z,4.85
2023-06-06T06:44:50.608Z,4.85
2023-06-06T06:45:53.893Z,4.85
2023-06-06T06:46:56.102Z,4.85
2023-06-06T06:48:00.368Z,4.85
2023-06-06T06:49:02.648Z,4.85
2023-06-06T06:50:06.952Z,4.85
2023-06-06T06:51:09.416Z,4.85
2023-06-06T06:52:13.280Z,4.85
2023-06-06T06:53:17.302Z,4.85
2023-06-06T06:54:23.529Z,4.85
2023-06-06T06:55:26.972Z,4.85
2023-06-06T06:56:30.906Z,4.85
2023-06-06T06:57:35.030Z,4.85
2023-06-06T06:58:39.056Z,4.85
2023-06-06T06:59:42.527Z,4.85
2023-06-06T07:00:45.687Z,4.85
2023-06-06T07:01:50.450Z,4.85
2023-06-06T07:02:57.556Z,4.85
2023-06-06T07:04:00.156Z,4.85
2023-06-06T07:05:07.043Z,4.85
2023-06-06T07:06:10.873Z,4.85
2023-06-06T07:07:15.216Z,4.85
2023-06-06T07:08:18.565Z,4.85
2023-06-06T07:09:21.760Z,4.84
2023-06-06T07:10:26.693Z,4.85
2023-06-06T07:11:29.080Z,4.85
2023-06-06T07:12:32.314Z,4.85
2023-06-06T07:13:36.046Z,4.84
2023-06-06T07:14:39.415Z,4.84
2023-06-06T07:15:42.728Z,4.85
2023-06-06T07:16:45.041Z,4.85
2023-06-06T07:17:51.077Z,4.84
2023-06-06T07:18:54.181Z,4.84
2023-06-06T07:19:57.833Z,4.84
2023-06-06T07:21:01.129Z,4.84
2023-06-06T07:22:04.314Z,4.84
2023-06-06T07:23:10.228Z,4.84
2023-06-06T07:24:13.385Z,4.84
2023-06-06T07:25:19.513Z,4.84
2023-06-06T07:26:22.126Z,4.84
2023-06-06T07:27:25.612Z,4.84
2023-06-06T07:28:28.148Z,4.84
2023-06-06T07:29:32.738Z,4.84
2023-06-06T07:30:35.212Z,4.84
2023-06-06T07:31:42.380Z,4.84
2023-06-06T07:32:51.540Z,4.84
2023-06-06T07:33:56.504Z,4.84
2023-06-06T07:34:58.992Z,4.84
2023-06-06T07:36:02.459Z,4.84
2023-06-06T07:37:09.326Z,4.84
2023-06-06T07:38:12.787Z,4.84
2023-06-06T07:39:16.392Z,4.83
2023-06-06T07:40:24.900Z,4.83
2023-06-06T07:41:32.027Z,4.83
2023-06-06T07:42:37.554Z,4.83
2023-06-06T07:43:41.037Z,4.83
2023-06-06T07:44:44.903Z,4.83
2023-06-06T07:45:50.208Z,4.83
2023-06-06T07:46:56.509Z,4.83
2023-06-06T07:47:59.890Z,4.83
2023-06-06T07:49:07.799Z,4.83
2023-06-06T07:50:15.564Z,4.83
2023-06-06T07:51:17.953Z,4.82
2023-06-06T07:52:21.602Z,4.83
2023-06-06T07:53:24.545Z,4.83
2023-06-06T07:54:27.902Z,4.82
2023-06-06T07:55:31.983Z,4.82
2023-06-06T07:56:38.135Z,4.82
2023-06-06T07:57:42.306Z,4.82
2023-06-06T07:58:52.539Z,4.82
2023-06-06T07:59:57.452Z,4.82
2023-06-06T08:00:59.832Z,4.82
2023-06-06T08:02:03.478Z,4.82
2023-06-06T08:03:08.985Z,4.81
2023-06-06T08:04:11.751Z,4.83
2023-06-06T08:05:15.242Z,4.81
2023-06-06T08:06:18.619Z,4.81
2023-06-06T08:07:21.943Z,4.81
2023-06-06T08:08:24.168Z,4.81
2023-06-06T08:09:27.377Z,4.80
2023-06-06T08:10:29.631Z,4.80
2023-06-06T08:11:33.719Z,4.80
2023-06-06T08:12:36.315Z,4.80
2023-06-06T08:13:39.544Z,4.80
2023-06-06T08:14:42.484Z,4.80
2023-06-06T08:15:47.080Z,4.80
2023-06-06T08:16:50.116Z,4.80
2023-06-06T08:17:53.570Z,4.81
2023-06-06T08:18:56.000Z,4.81
2023-06-06T08:19:59.165Z,4.81
2023-06-06T08:21:01.347Z,4.81
2023-06-06T08:22:04.859Z,4.80
2023-06-06T08:23:07.197Z,4.80
2023-06-06T08:24:10.548Z,4.80
2023-06-06T08:25:15.485Z,4.81
2023-06-06T08:26:19.279Z,4.81
2023-06-06T08:27:22.946Z,4.81
2023-06-06T08:28:26.041Z,4.82
2023-06-06T08:29:29.261Z,4.81
2023-06-06T08:30:31.682Z,4.81
2023-06-06T08:31:36.443Z,4.80
2023-06-06T08:32:40.007Z,4.82
2023-06-06T08:33:43.461Z,4.82
2023-06-06T08:34:45.974Z,4.82
2023-06-06T08:35:49.902Z,4.81
2023-06-06T08:36:53.316Z,4.81
2023-06-06T08:37:55.639Z,4.81
2023-06-06T08:38:58.869Z,4.81
2023-06-06T08:40:01.492Z,4.82
2023-06-06T08:41:05.582Z,4.81
2023-06-06T08:42:11.718Z,4.82
2023-06-06T08:43:16.784Z,4.81
2023-06-06T08:44:21.080Z,4.81
2023-06-06T08:45:24.512Z,4.81
2023-06-06T08:46:27.114Z,4.81
2023-06-06T08:47:33.713Z,4.81
2023-06-06T08:48:36.695Z,4.81
2023-06-06T08:49:40.042Z,4.81
2023-06-06T08:50:43.377Z,4.81
2023-06-06T08:51:48.400Z,4.81
2023-06-06T08:52:52.445Z,4.81
2023-06-06T08:53:57.435Z,4.81
2023-06-06T08:55:00.755Z,4.81
2023-06-06T08:56:03.184Z,4.81
2023-06-06T08:57:09.782Z,4.81
2023-06-06T08:58:13.884Z,4.81
2023-06-06T08:59:16.475Z,4.81
2023-06-06T09:00:22.664Z,4.81
2023-06-06T09:01:31.369Z,4.81
2023-06-06T09:02:35.211Z,4.82
2023-06-06T09:03:44.418Z,4.82
2023-06-06T09:04:49.940Z,4.83
2023-06-06T09:05:52.675Z,4.82
2023-06-06T09:06:58.097Z,4.83
2023-06-06T09:08:03.639Z,4.82
2023-06-06T09:09:09.356Z,4.82
2023-06-06T09:10:12.492Z,4.83
2023-06-06T09:11:17.057Z,4.82
2023-06-06T09:12:19.430Z,4.82
2023-06-06T09:13:22.860Z,4.82
2023-06-06T09:14:25.430Z,4.82
2023-06-06T09:15:28.818Z,4.82
2023-06-06T09:16:32.924Z,4.82
2023-06-06T09:17:41.341Z,4.82
2023-06-06T09:18:43.820Z,4.82
2023-06-06T09:19:47.594Z,4.82
2023-06-06T09:20:53.220Z,4.82
2023-06-06T09:22:00.996Z,4.82
2023-06-06T09:23:05.221Z,4.82
2023-06-06T09:24:07.925Z,4.82
2023-06-06T09:25:19.137Z,4.82
2023-06-06T09:26:23.444Z,4.82
2023-06-06T09:27:29.680Z,4.82
2023-06-06T09:28:39.773Z,4.82
2023-06-06T09:29:42.104Z,4.82
2023-06-06T09:30:45.516Z,4.82
2023-06-06T09:31:53.897Z,4.82
2023-06-06T09:33:00.309Z,4.82
2023-06-06T09:34:03.840Z,4.82
2023-06-06T09:35:08.238Z,4.82
2023-06-06T09:36:12.609Z,4.82
2023-06-06T09:37:17.176Z,4.82
2023-06-06T09:38:20.769Z,4.82
2023-06-06T09:39:24.080Z,4.82
2023-06-06T09:40:27.765Z,4.82
2023-06-06T09:41:31.206Z,4.82
2023-06-06T09:42:33.491Z,4.82
2023-06-06T09:43:39.100Z,4.82
2023-06-06T09:44:43.043Z,4.82
2023-06-06T09:45:52.060Z,4.82
2023-06-06T09:47:00.798Z,4.82
2023-06-06T09:48:05.945Z,4.82
2023-06-06T09:49:12.118Z,4.82
2023-06-06T09:50:18.816Z,4.82
2023-06-06T09:51:21.145Z,4.82
2023-06-06T09:52:24.363Z,4.82
2023-06-06T09:53:28.370Z,4.82
2023-06-06T09:54:30.741Z,4.82
2023-06-06T09:55:34.662Z,4.82
2023-06-06T09:56:41.189Z,4.82
2023-06-06T09:57:46.418Z,4.82
2023-06-06T09:58:56.289Z,4.82
2023-06-06T10:00:02.313Z,4.82
2023-06-06T10:01:05.747Z,4.82
2023-06-06T10:02:12.721Z,4.82
2023-06-06T10:03:20.351Z,4.82
2023-06-06T10:04:24.435Z,4.82
2023-06-06T10:05:28.345Z,4.82
2023-06-06T10:08:37.872Z,4.82
2023-06-06T10:09:40.189Z,4.82
2023-06-06T10:10:44.885Z,4.82
2023-06-06T10:11:48.670Z,4.82
2023-06-06T10:12:51.970Z,4.82
2023-06-06T10:13:55.485Z,4.82
2023-06-06T10:14:58.960Z,4.82
2023-06-06T10:16:02.436Z,4.82
2023-06-06T10:17:08.303Z,4.82
2023-06-06T10:18:11.799Z,4.82
2023-06-06T10:19:14.884Z,4.82
2023-06-06T10:20:18.108Z,4.82
2023-06-06T10:21:21.217Z,4.82
2023-06-06T10:22:24.575Z,4.82
2023-06-06T10:23:28.171Z,4.82
2023-06-06T10:24:31.682Z,4.82
2023-06-06T10:25:36.913Z,4.82
2023-06-06T10:26:47.478Z,4.82
2023-06-06T10:27:56.636Z,4.82
2023-06-06T10:29:03.354Z,4.82
2023-06-06T10:30:11.647Z,4.82
2023-06-06T10:31:20.290Z,4.82
2023-06-06T10:32:31.239Z,4.82
2023-06-06T10:33:42.823Z,4.82
2023-06-06T10:34:48.884Z,4.82
2023-06-06T10:35:56.651Z,4.82
2023-06-06T10:37:15.902Z,4.82
2023-06-06T10:38:19.840Z,4.82
2023-06-06T10:39:24.273Z,4.82
2023-06-06T10:40:28.664Z,4.82
2023-06-06T10:41:42.442Z,4.82
2023-06-06T10:42:45.633Z,4.82
2023-06-06T10:43:52.453Z,4.82
2023-06-06T10:44:57.227Z,4.82
2023-06-06T10:46:00.162Z,4.82
2023-06-06T10:47:29.874Z,4.82
2023-06-06T10:50:24.934Z,4.82
2023-06-06T10:51:32.831Z,4.82
2023-06-06T10:52:42.495Z,4.82
2023-06-06T10:53:44.689Z,4.82
2023-06-06T10:54:50.692Z,4.82
2023-06-06T10:55:53.984Z,4.82
2023-06-06T10:56:57.403Z,4.81
2023-06-06T10:58:06.949Z,4.82
2023-06-06T10:59:11.237Z,4.82
2023-06-06T11:00:18.418Z,4.82
2023-06-06T11:01:24.635Z,4.82
2023-06-06T11:02:34.901Z,4.82
2023-06-06T11:03:55.319Z,4.82
2023-06-06T11:06:39.568Z,4.82
2023-06-06T11:07:42.156Z,4.82
2023-06-06T11:08:47.899Z,4.82
2023-06-06T11:09:52.048Z,4.82
2023-06-06T11:11:19.266Z,4.82
2023-06-06T11:12:28.263Z,4.82
2023-06-06T11:13:30.653Z,4.82
2023-06-06T11:14:57.025Z,4.82
2023-06-06T11:16:07.319Z,4.82
2023-06-06T11:17:14.346Z,4.82
2023-06-06T11:18:37.107Z,4.82
2023-06-06T11:19:42.292Z,4.83
2023-06-06T11:20:45.465Z,4.82
2023-06-06T11:21:50.507Z,4.82
2023-06-06T11:22:59.201Z,4.82
2023-06-06T11:24:03.093Z,4.82
2023-06-06T11:25:10.603Z,4.82
2023-06-06T11:26:13.303Z,4.82
2023-06-06T11:27:18.179Z,4.82
2023-06-06T11:28:23.019Z,4.82
2023-06-06T11:29:28.097Z,4.82
2023-06-06T11:30:32.903Z,4.82
2023-06-06T11:31:36.766Z,4.82
2023-06-06T11:32:40.679Z,4.82
2023-06-06T11:33:42.893Z,4.82
2023-06-06T11:34:46.050Z,4.82
2023-06-06T11:35:48.448Z,4.82
2023-06-06T11:36:53.575Z,4.82
2023-06-06T11:37:57.466Z,4.82
2023-06-06T11:39:00.150Z,4.82
2023-06-06T11:40:09.934Z,4.82
2023-06-06T11:41:12.794Z,4.82
2023-06-06T11:42:19.546Z,4.82
2023-06-06T11:43:21.949Z,4.82
2023-06-06T11:44:34.240Z,4.82
2023-06-06T11:45:37.480Z,4.82
2023-06-06T11:46:47.972Z,4.82
2023-06-06T11:47:58.006Z,4.82
2023-06-06T11:49:08.718Z,4.81
2023-06-06T11:50:12.400Z,4.82
2023-06-06T11:51:15.262Z,4.82
2023-06-06T11:52:19.501Z,4.82
2023-06-06T11:53:32.063Z,4.82
2023-06-06T11:54:35.498Z,4.82
2023-06-06T11:55:39.942Z,4.82
2023-06-06T11:56:43.230Z,4.82
2023-06-06T11:57:46.904Z,4.82
2023-06-06T11:58:49.388Z,4.82
2023-06-06T11:59:56.550Z,4.82
2023-06-06T12:01:01.083Z,4.82
2023-06-06T12:02:05.029Z,4.82
2023-06-06T12:03:08.333Z,4.82
2023-06-06T12:04:10.826Z,4.82
2023-06-06T12:05:22.342Z,4.82
2023-06-06T12:06:28.248Z,4.82
2023-06-06T12:07:32.549Z,4.82
2023-06-06T12:08:37.679Z,4.82
2023-06-06T12:09:41.104Z,4.82
2023-06-06T12:10:44.717Z,4.82
2023-06-06T12:11:54.827Z,4.82
2023-06-06T12:13:00.651Z,4.82
2023-06-06T12:14:12.007Z,4.82
2023-06-06T12:15:15.212Z,4.82
2023-06-06T12:16:22.283Z,4.82
2023-06-06T12:17:26.583Z,4.82
2023-06-06T12:18:28.794Z,4.82
2023-06-06T12:19:32.073Z,4.82
2023-06-06T12:20:34.247Z,4.82
2023-06-06T12:21:46.457Z,4.82
2023-06-06T12:22:50.787Z,4.82
2023-06-06T12:23:52.983Z,4.82
2023-06-06T12:24:56.156Z,4.82
2023-06-06T12:25:59.797Z,4.82
2023-06-06T12:27:04.749Z,4.82
2023-06-06T12:28:11.605Z,4.82
2023-06-06T12:29:19.645Z,4.82
2023-06-06T12:30:30.458Z,4.82
2023-06-06T12:31:35.835Z,4.82
2023-06-06T12:32:40.404Z,4.82
2023-06-06T12:33:45.872Z,4.82
2023-06-06T12:34:50.475Z,4.82
2023-06-06T12:35:55.168Z,4.82
2023-06-06T12:36:58.689Z,4.82
2023-06-06T12:38:02.924Z,4.82
2023-06-06T12:39:08.998Z,4.82
2023-06-06T12:40:16.271Z,4.82
2023-06-06T12:41:19.916Z,4.82
2023-06-06T12:42:23.090Z,4.82
2023-06-06T12:43:26.414Z,4.82
2023-06-06T12:44:29.839Z,4.82
2023-06-06T12:45:35.864Z,4.82
2023-06-06T12:46:42.816Z,4.82
2023-06-06T12:47:45.440Z,4.82
2023-06-06T12:48:48.973Z,4.82
2023-06-06T12:49:51.442Z,4.82
2023-06-06T12:50:56.216Z,4.82
2023-06-06T12:51:58.489Z,4.82
2023-06-06T12:53:03.816Z,4.82
2023-06-06T12:54:07.640Z,4.82
2023-06-06T12:55:10.237Z,4.82
2023-06-06T12:56:16.306Z,4.82
2023-06-06T12:57:21.095Z,4.82
2023-06-06T12:58:24.822Z,4.82
2023-06-06T12:59:27.664Z,4.82
2023-06-06T13:00:31.393Z,4.82
2023-06-06T13:01:35.388Z,4.82
2023-06-06T13:02:37.754Z,4.82
2023-06-06T13:03:41.871Z,4.82
2023-06-06T13:04:45.128Z,4.82
2023-06-06T13:05:51.989Z,4.82
2023-06-06T13:06:55.158Z,4.82
2023-06-06T13:07:58.685Z,4.82
2023-06-06T13:09:01.889Z,4.82
2023-06-06T13:10:07.659Z,4.82
2023-06-06T13:11:11.613Z,4.82
2023-06-06T13:12:14.430Z,4.82
2023-06-06T13:13:22.329Z,4.82
2023-06-06T13:14:24.722Z,4.82
2023-06-06T13:15:32.192Z,4.82
2023-06-06T13:16:35.403Z,4.82
2023-06-06T13:17:37.978Z,4.82
2023-06-06T13:18:41.233Z,4.82
2023-06-06T13:19:44.792Z,4.82
2023-06-06T13:20:47.961Z,4.82
2023-06-06T13:21:51.114Z,4.82
2023-06-06T13:22:53.532Z,4.82
2023-06-06T13:23:56.849Z,4.82
2023-06-06T13:24:59.233Z,4.82
2023-06-06T13:26:02.460Z,4.82
2023-06-06T13:27:07.621Z,4.82
2023-06-06T13:28:10.965Z,4.82
2023-06-06T13:29:14.538Z,4.82
2023-06-06T13:30:17.844Z,4.82
2023-06-06T13:31:20.119Z,4.82
2023-06-06T13:32:23.950Z,4.82
2023-06-06T13:33:26.327Z,4.82
2023-06-06T13:34:29.869Z,4.82
2023-06-06T13:35:33.019Z,4.82
2023-06-06T13:36:36.775Z,4.82
2023-06-06T13:37:40.056Z,4.82
2023-06-06T13:38:45.099Z,4.82
2023-06-06T13:39:48.323Z,4.82
2023-06-06T13:40:52.125Z,4.82
2023-06-06T13:41:54.554Z,4.82
2023-06-06T13:42:57.673Z,4.82
2023-06-06T13:44:00.829Z,4.82
2023-06-06T13:45:06.000Z,4.82
2023-06-06T13:46:08.301Z,4.82
2023-06-06T13:47:11.773Z,4.82
2023-06-06T13:48:14.989Z,4.82
2023-06-06T13:49:18.383Z,4.82
2023-06-06T13:50:21.589Z,4.82
2023-06-06T13:51:25.053Z,4.82
2023-06-06T13:52:27.438Z,4.82
2023-06-06T13:53:30.733Z,4.82
2023-06-06T13:54:33.113Z,4.82
2023-06-06T13:55:36.345Z,4.82
2023-06-06T13:56:39.569Z,4.82
2023-06-06T13:57:43.301Z,4.81
2023-06-06T13:58:51.861Z,4.82
2023-06-06T13:59:55.073Z,4.82
2023-06-06T14:00:59.879Z,4.82
2023-06-06T14:02:04.870Z,4.82
2023-06-06T14:03:08.248Z,4.82
2023-06-06T14:04:10.815Z,4.82
2023-06-06T14:05:14.242Z,4.82
2023-06-06T14:06:16.769Z,4.82
2023-06-06T14:07:20.479Z,4.82
2023-06-06T14:08:23.733Z,4.82
2023-06-06T14:09:25.989Z,4.82
2023-06-06T14:10:29.135Z,4.82
2023-06-06T14:11:31.422Z,4.82
2023-06-06T14:12:35.589Z,4.82
2023-06-06T14:13:38.850Z,4.82
2023-06-06T14:14:41.335Z,4.82
2023-06-06T14:15:46.618Z,4.82
2023-06-06T14:16:50.499Z,4.82
2023-06-06T14:17:56.507Z,4.82
2023-06-06T14:19:00.200Z,4.82
2023-06-06T14:20:04.070Z,4.82
2023-06-06T14:21:20.933Z,4.82
2023-06-06T14:22:26.349Z,4.82
2023-06-06T14:23:28.596Z,4.82
2023-06-06T14:24:32.858Z,4.82
2023-06-06T14:25:36.168Z,4.81
2023-06-06T14:26:38.539Z,4.82